sensor_id;sensor_type;location;lat;lon;timestamp;temperature;humidity
23120;DHT22;11729;50.836;4.330;2022-08-07T00:01:17;17.80;99.90
23120;DHT22;11729;50.836;4.330;2022-08-07T00:03:43;17.90;99.90
23120;DHT22;11729;50.836;4.330;2022-08-07T00:06:08;17.80;99.90
23120;DHT22;11729;50.836;4.330;2022-08-07T00:08:36;17.80;99.90
23120;DHT22;11729;50.836;4.330;2022-08-07T00:11:03;17.80;99.90
23120;DHT22;11729;50.836;4.330;2022-08-07T00:13:29;17.70;99.90
23120;DHT22;11729;50.836;4.330;2022-08-07T00:15:55;17.70;99.90
23120;DHT22;11729;50.836;4.330;2022-08-07T00:18:23;17.80;99.90
23120;DHT22;11729;50.836;4.330;2022-08-07T00:20:49;17.70;99.90
23120;DHT22;11729;50.836;4.330;2022-08-07T00:23:15;17.70;99.90
23120;DHT22;11729;50.836;4.330;2022-08-07T00:25:41;17.60;99.90
23120;DHT22;11729;50.836;4.330;2022-08-07T00:28:07;17.50;99.90
23120;DHT22;11729;50.836;4.330;2022-08-07T00:30:32;17.60;99.90
23120;DHT22;11729;50.836;4.330;2022-08-07T00:32:59;17.50;99.90
23120;DHT22;11729;50.836;4.330;2022-08-07T00:35:27;17.60;99.90
23120;DHT22;11729;50.836;4.330;2022-08-07T00:37:53;17.60;99.90
23120;DHT22;11729;50.836;4.330;2022-08-07T00:40:19;17.60;99.90
23120;DHT22;11729;50.836;4.330;2022-08-07T00:42:45;17.60;99.90
23120;DHT22;11729;50.836;4.330;2022-08-07T00:45:11;17.50;99.90
23120;DHT22;11729;50.836;4.330;2022-08-07T00:47:36;17.30;99.90
23120;DHT22;11729;50.836;4.330;2022-08-07T00:50:03;17.20;99.90
23120;DHT22;11729;50.836;4.330;2022-08-07T00:52:29;17.30;99.90
23120;DHT22;11729;50.836;4.330;2022-08-07T00:54:55;17.30;99.90
23120;DHT22;11729;50.836;4.330;2022-08-07T00:57:22;17.30;99.90
23120;DHT22;11729;50.836;4.330;2022-08-07T00:59:48;17.30;99.90
23120;DHT22;11729;50.836;4.330;2022-08-07T01:02:13;17.30;99.90
23120;DHT22;11729;50.836;4.330;2022-08-07T01:04:39;17.50;99.90
23120;DHT22;11729;50.836;4.330;2022-08-07T01:07:05;17.40;99.90
23120;DHT22;11729;50.836;4.330;2022-08-07T01:09:31;17.40;99.90
23120;DHT22;11729;50.836;4.330;2022-08-07T01:11:58;17.30;99.90
23120;DHT22;11729;50.836;4.330;2022-08-07T01:14:24;17.20;99.90
23120;DHT22;11729;50.836;4.330;2022-08-07T01:16:51;17.20;99.90
23120;DHT22;11729;50.836;4.330;2022-08-07T01:19:18;17.30;99.90
23120;DHT22;11729;50.836;4.330;2022-08-07T01:21:45;17.30;99.90
23120;DHT22;11729;50.836;4.330;2022-08-07T01:24:11;17.20;99.90
23120;DHT22;11729;50.836;4.330;2022-08-07T01:26:37;17.10;99.90
23120;DHT22;11729;50.836;4.330;2022-08-07T01:29:03;17.20;99.90
23120;DHT22;11729;50.836;4.330;2022-08-07T01:31:29;17.20;99.90
23120;DHT22;11729;50.836;4.330;2022-08-07T01:34:01;17.20;99.90
23120;DHT22;11729;50.836;4.330;2022-08-07T01:36:28;17.30;99.90
23120;DHT22;11729;50.836;4.330;2022-08-07T01:38:54;17.20;99.90
23120;DHT22;11729;50.836;4.330;2022-08-07T01:41:21;17.00;99.90
23120;DHT22;11729;50.836;4.330;2022-08-07T01:43:48;16.90;99.90
23120;DHT22;11729;50.836;4.330;2022-08-07T01:46:15;17.00;99.90
23120;DHT22;11729;50.836;4.330;2022-08-07T01:48:42;17.10;99.90
23120;DHT22;11729;50.836;4.330;2022-08-07T01:51:11;17.10;99.90
23120;DHT22;11729;50.836;4.330;2022-08-07T01:53:38;16.90;99.90
23120;DHT22;11729;50.836;4.330;2022-08-07T01:56:12;16.90;99.90
23120;DHT22;11729;50.836;4.330;2022-08-07T01:58:42;16.90;99.90
23120;DHT22;11729;50.836;4.330;2022-08-07T02:01:13;16.90;99.90
23120;DHT22;11729;50.836;4.330;2022-08-07T02:03:46;16.90;99.90
23120;DHT22;11729;50.836;4.330;2022-08-07T02:06:14;16.90;99.90
23120;DHT22;11729;50.836;4.330;2022-08-07T02:08:41;17.00;99.90
23120;DHT22;11729;50.836;4.330;2022-08-07T02:11:08;16.80;99.90
23120;DHT22;11729;50.836;4.330;2022-08-07T02:13:36;16.80;99.90
23120;DHT22;11729;50.836;4.330;2022-08-07T02:16:03;16.90;99.90
23120;DHT22;11729;50.836;4.330;2022-08-07T02:18:31;16.90;99.90
23120;DHT22;11729;50.836;4.330;2022-08-07T02:20:59;16.90;99.90
23120;DHT22;11729;50.836;4.330;2022-08-07T02:23:26;17.00;99.90
23120;DHT22;11729;50.836;4.330;2022-08-07T02:25:54;17.00;99.90
23120;DHT22;11729;50.836;4.330;2022-08-07T02:28:22;17.00;99.90
23120;DHT22;11729;50.836;4.330;2022-08-07T02:30:50;16.90;99.90
23120;DHT22;11729;50.836;4.330;2022-08-07T02:33:17;16.90;99.90
23120;DHT22;11729;50.836;4.330;2022-08-07T02:35:45;16.90;99.90
23120;DHT22;11729;50.836;4.330;2022-08-07T02:38:13;16.80;99.90
23120;DHT22;11729;50.836;4.330;2022-08-07T02:40:40;16.80;99.90
23120;DHT22;11729;50.836;4.330;2022-08-07T02:43:06;16.80;99.90
23120;DHT22;11729;50.836;4.330;2022-08-07T02:45:33;16.90;99.90
23120;DHT22;11729;50.836;4.330;2022-08-07T02:48:01;17.00;99.90
23120;DHT22;11729;50.836;4.330;2022-08-07T02:50:27;16.80;99.90
23120;DHT22;11729;50.836;4.330;2022-08-07T02:53:02;16.90;99.90
23120;DHT22;11729;50.836;4.330;2022-08-07T02:55:30;16.90;99.90
23120;DHT22;11729;50.836;4.330;2022-08-07T02:58:03;16.80;99.90
23120;DHT22;11729;50.836;4.330;2022-08-07T03:00:32;16.70;99.90
23120;DHT22;11729;50.836;4.330;2022-08-07T03:03:00;16.70;99.90
23120;DHT22;11729;50.836;4.330;2022-08-07T03:05:27;16.80;99.90
23120;DHT22;11729;50.836;4.330;2022-08-07T03:07:54;16.80;99.90
23120;DHT22;11729;50.836;4.330;2022-08-07T03:10:21;16.90;99.90
23120;DHT22;11729;50.836;4.330;2022-08-07T03:12:46;16.90;99.90
23120;DHT22;11729;50.836;4.330;2022-08-07T03:15:13;16.90;99.90
23120;DHT22;11729;50.836;4.330;2022-08-07T03:17:40;16.70;99.90
23120;DHT22;11729;50.836;4.330;2022-08-07T03:20:06;16.80;99.90
23120;DHT22;11729;50.836;4.330;2022-08-07T03:22:32;16.70;99.90
23120;DHT22;11729;50.836;4.330;2022-08-07T03:25:00;16.70;99.90
23120;DHT22;11729;50.836;4.330;2022-08-07T03:27:26;16.80;99.90
23120;DHT22;11729;50.836;4.330;2022-08-07T03:29:53;16.70;99.90
23120;DHT22;11729;50.836;4.330;2022-08-07T03:32:23;16.70;99.90
23120;DHT22;11729;50.836;4.330;2022-08-07T03:34:52;16.70;99.90
23120;DHT22;11729;50.836;4.330;2022-08-07T03:37:19;16.50;99.90
23120;DHT22;11729;50.836;4.330;2022-08-07T03:39:46;16.40;99.90
23120;DHT22;11729;50.836;4.330;2022-08-07T03:42:14;16.50;99.90
23120;DHT22;11729;50.836;4.330;2022-08-07T03:44:40;16.50;99.90
23120;DHT22;11729;50.836;4.330;2022-08-07T03:47:07;16.50;99.90
23120;DHT22;11729;50.836;4.330;2022-08-07T03:49:33;16.60;99.90
23120;DHT22;11729;50.836;4.330;2022-08-07T03:52:00;16.60;99.90
23120;DHT22;11729;50.836;4.330;2022-08-07T03:54:26;16.40;99.90
23120;DHT22;11729;50.836;4.330;2022-08-07T03:56:53;16.50;99.90
23120;DHT22;11729;50.836;4.330;2022-08-07T03:59:20;16.60;99.90
23120;DHT22;11729;50.836;4.330;2022-08-07T04:01:46;16.60;99.90
23120;DHT22;11729;50.836;4.330;2022-08-07T04:04:15;16.50;99.90
23120;DHT22;11729;50.836;4.330;2022-08-07T04:06:41;16.60;99.90
23120;DHT22;11729;50.836;4.330;2022-08-07T04:09:08;16.70;99.90
23120;DHT22;11729;50.836;4.330;2022-08-07T04:11:35;16.60;99.90
23120;DHT22;11729;50.836;4.330;2022-08-07T04:14:02;16.60;99.90
23120;DHT22;11729;50.836;4.330;2022-08-07T04:16:28;16.60;99.90
23120;DHT22;11729;50.836;4.330;2022-08-07T04:18:54;16.50;99.90
23120;DHT22;11729;50.836;4.330;2022-08-07T04:21:20;16.50;99.90
23120;DHT22;11729;50.836;4.330;2022-08-07T04:23:47;16.30;99.90
23120;DHT22;11729;50.836;4.330;2022-08-07T04:26:13;16.20;99.90
23120;DHT22;11729;50.836;4.330;2022-08-07T04:28:39;16.30;99.90
23120;DHT22;11729;50.836;4.330;2022-08-07T04:31:05;16.40;99.90
23120;DHT22;11729;50.836;4.330;2022-08-07T04:33:32;16.20;99.90
23120;DHT22;11729;50.836;4.330;2022-08-07T04:35:58;16.10;99.90
23120;DHT22;11729;50.836;4.330;2022-08-07T04:38:24;16.10;99.90
23120;DHT22;11729;50.836;4.330;2022-08-07T04:40:51;16.10;99.90
23120;DHT22;11729;50.836;4.330;2022-08-07T04:43:20;16.10;99.90
23120;DHT22;11729;50.836;4.330;2022-08-07T04:59:34;16.40;99.90
23120;DHT22;11729;50.836;4.330;2022-08-07T05:05:17;16.10;99.90
23120;DHT22;11729;50.836;4.330;2022-08-07T05:08:00;16.20;99.90
23120;DHT22;11729;50.836;4.330;2022-08-07T05:10:38;16.30;99.90
23120;DHT22;11729;50.836;4.330;2022-08-07T05:13:15;16.20;99.90
23120;DHT22;11729;50.836;4.330;2022-08-07T05:15:46;16.30;99.90
23120;DHT22;11729;50.836;4.330;2022-08-07T05:18:18;16.40;99.90
23120;DHT22;11729;50.836;4.330;2022-08-07T05:20:48;16.40;99.90
23120;DHT22;11729;50.836;4.330;2022-08-07T05:23:20;16.50;99.90
23120;DHT22;11729;50.836;4.330;2022-08-07T05:25:47;16.70;99.90
23120;DHT22;11729;50.836;4.330;2022-08-07T05:28:15;16.50;99.90
23120;DHT22;11729;50.836;4.330;2022-08-07T05:30:41;16.40;99.90
23120;DHT22;11729;50.836;4.330;2022-08-07T05:33:08;16.30;99.90
23120;DHT22;11729;50.836;4.330;2022-08-07T05:35:35;16.40;99.90
23120;DHT22;11729;50.836;4.330;2022-08-07T05:38:04;16.50;99.90
23120;DHT22;11729;50.836;4.330;2022-08-07T05:40:31;16.60;99.90
23120;DHT22;11729;50.836;4.330;2022-08-07T05:42:57;16.60;99.90
23120;DHT22;11729;50.836;4.330;2022-08-07T05:45:24;16.60;99.90
23120;DHT22;11729;50.836;4.330;2022-08-07T05:47:52;16.80;99.90
23120;DHT22;11729;50.836;4.330;2022-08-07T05:50:18;16.90;99.90
23120;DHT22;11729;50.836;4.330;2022-08-07T05:52:44;17.00;99.90
23120;DHT22;11729;50.836;4.330;2022-08-07T05:55:10;17.00;99.90
23120;DHT22;11729;50.836;4.330;2022-08-07T05:57:36;17.10;99.90
23120;DHT22;11729;50.836;4.330;2022-08-07T06:00:05;17.30;99.90
23120;DHT22;11729;50.836;4.330;2022-08-07T06:02:32;17.40;99.90
23120;DHT22;11729;50.836;4.330;2022-08-07T06:05:06;17.60;99.90
23120;DHT22;11729;50.836;4.330;2022-08-07T06:07:33;17.70;99.90
23120;DHT22;11729;50.836;4.330;2022-08-07T06:10:00;17.90;99.90
23120;DHT22;11729;50.836;4.330;2022-08-07T06:12:27;18.70;99.90
23120;DHT22;11729;50.836;4.330;2022-08-07T06:14:53;20.10;99.90
23120;DHT22;11729;50.836;4.330;2022-08-07T06:17:19;21.80;99.90
23120;DHT22;11729;50.836;4.330;2022-08-07T06:19:47;23.00;99.90
23120;DHT22;11729;50.836;4.330;2022-08-07T06:22:13;24.40;99.90
23120;DHT22;11729;50.836;4.330;2022-08-07T06:24:40;25.30;99.00
23120;DHT22;11729;50.836;4.330;2022-08-07T06:27:06;26.40;96.20
23120;DHT22;11729;50.836;4.330;2022-08-07T06:29:32;27.30;93.20
23120;DHT22;11729;50.836;4.330;2022-08-07T06:31:58;27.90;91.40
23120;DHT22;11729;50.836;4.330;2022-08-07T06:34:26;28.30;87.50
23120;DHT22;11729;50.836;4.330;2022-08-07T06:36:52;28.60;86.80
23120;DHT22;11729;50.836;4.330;2022-08-07T06:39:18;28.90;83.40
23120;DHT22;11729;50.836;4.330;2022-08-07T06:41:47;29.40;82.00
23120;DHT22;11729;50.836;4.330;2022-08-07T06:44:14;29.80;79.50
23120;DHT22;11729;50.836;4.330;2022-08-07T06:46:41;30.70;76.00
23120;DHT22;11729;50.836;4.330;2022-08-07T06:49:07;31.60;72.50
23120;DHT22;11729;50.836;4.330;2022-08-07T06:51:34;31.80;69.40
23120;DHT22;11729;50.836;4.330;2022-08-07T06:54:01;31.60;67.30
23120;DHT22;11729;50.836;4.330;2022-08-07T06:56:29;31.50;67.60
23120;DHT22;11729;50.836;4.330;2022-08-07T06:59:21;31.30;66.80
23120;DHT22;11729;50.836;4.330;2022-08-07T07:01:48;31.90;65.30
23120;DHT22;11729;50.836;4.330;2022-08-07T07:04:15;31.40;66.50
23120;DHT22;11729;50.836;4.330;2022-08-07T07:06:41;31.40;64.50
23120;DHT22;11729;50.836;4.330;2022-08-07T07:14:36;31.00;64.50
23120;DHT22;11729;50.836;4.330;2022-08-07T07:17:17;31.30;63.80
23120;DHT22;11729;50.836;4.330;2022-08-07T07:19:51;32.10;63.30
23120;DHT22;11729;50.836;4.330;2022-08-07T07:22:18;32.60;61.00
23120;DHT22;11729;50.836;4.330;2022-08-07T07:24:44;32.70;61.00
23120;DHT22;11729;50.836;4.330;2022-08-07T07:27:12;33.10;59.70
23120;DHT22;11729;50.836;4.330;2022-08-07T07:29:44;33.00;59.60
23120;DHT22;11729;50.836;4.330;2022-08-07T07:32:13;33.30;59.10
23120;DHT22;11729;50.836;4.330;2022-08-07T07:34:48;33.80;58.60
23120;DHT22;11729;50.836;4.330;2022-08-07T07:37:15;34.00;56.90
23120;DHT22;11729;50.836;4.330;2022-08-07T07:39:42;33.20;58.00
23120;DHT22;11729;50.836;4.330;2022-08-07T07:42:10;33.10;57.20
23120;DHT22;11729;50.836;4.330;2022-08-07T07:44:38;33.70;57.30
23120;DHT22;11729;50.836;4.330;2022-08-07T07:47:06;34.30;56.10
23120;DHT22;11729;50.836;4.330;2022-08-07T07:49:34;34.50;54.90
23120;DHT22;11729;50.836;4.330;2022-08-07T07:52:02;34.70;54.00
23120;DHT22;11729;50.836;4.330;2022-08-07T07:54:29;34.50;54.10
23120;DHT22;11729;50.836;4.330;2022-08-07T07:56:56;34.90;53.40
23120;DHT22;11729;50.836;4.330;2022-08-07T07:59:24;34.10;53.60
23120;DHT22;11729;50.836;4.330;2022-08-07T08:01:51;34.40;54.20
23120;DHT22;11729;50.836;4.330;2022-08-07T08:04:18;34.40;52.90
23120;DHT22;11729;50.836;4.330;2022-08-07T08:06:45;34.60;52.30
23120;DHT22;11729;50.836;4.330;2022-08-07T08:09:13;34.40;53.10
23120;DHT22;11729;50.836;4.330;2022-08-07T08:11:42;34.60;52.60
23120;DHT22;11729;50.836;4.330;2022-08-07T08:14:08;34.30;51.90
23120;DHT22;11729;50.836;4.330;2022-08-07T08:16:44;33.80;52.30
23120;DHT22;11729;50.836;4.330;2022-08-07T08:19:13;33.30;53.90
23120;DHT22;11729;50.836;4.330;2022-08-07T08:21:43;33.10;53.80
23120;DHT22;11729;50.836;4.330;2022-08-07T08:24:31;33.20;54.80
23120;DHT22;11729;50.836;4.330;2022-08-07T08:27:18;33.70;52.60
23120;DHT22;11729;50.836;4.330;2022-08-07T08:29:51;33.90;52.00
23120;DHT22;11729;50.836;4.330;2022-08-07T08:32:20;34.10;52.10
23120;DHT22;11729;50.836;4.330;2022-08-07T08:34:50;33.70;51.30
23120;DHT22;11729;50.836;4.330;2022-08-07T08:37:17;34.20;52.50
23120;DHT22;11729;50.836;4.330;2022-08-07T08:39:44;34.90;50.10
23120;DHT22;11729;50.836;4.330;2022-08-07T08:42:12;35.10;49.90
23120;DHT22;11729;50.836;4.330;2022-08-07T08:45:01;36.00;50.90
23120;DHT22;11729;50.836;4.330;2022-08-07T08:47:51;35.70;48.90
23120;DHT22;11729;50.836;4.330;2022-08-07T08:50:20;35.60;48.30
23120;DHT22;11729;50.836;4.330;2022-08-07T08:53:03;34.80;48.40
23120;DHT22;11729;50.836;4.330;2022-08-07T08:55:56;34.70;50.30
23120;DHT22;11729;50.836;4.330;2022-08-07T09:01:36;34.80;48.10
23120;DHT22;11729;50.836;4.330;2022-08-07T09:04:08;35.00;49.00
23120;DHT22;11729;50.836;4.330;2022-08-07T09:07:00;35.10;48.20
23120;DHT22;11729;50.836;4.330;2022-08-07T09:14:59;36.40;47.00
23120;DHT22;11729;50.836;4.330;2022-08-07T09:20:37;36.70;45.80
23120;DHT22;11729;50.836;4.330;2022-08-07T09:23:52;36.70;45.70
23120;DHT22;11729;50.836;4.330;2022-08-07T09:28:58;36.20;44.60
23120;DHT22;11729;50.836;4.330;2022-08-07T09:31:48;36.30;45.00
23120;DHT22;11729;50.836;4.330;2022-08-07T09:37:10;35.10;44.80
23120;DHT22;11729;50.836;4.330;2022-08-07T09:40:02;34.70;45.90
23120;DHT22;11729;50.836;4.330;2022-08-07T09:42:43;34.30;46.60
23120;DHT22;11729;50.836;4.330;2022-08-07T09:50:53;35.10;46.00
23120;DHT22;11729;50.836;4.330;2022-08-07T09:53:21;35.50;45.20
23120;DHT22;11729;50.836;4.330;2022-08-07T09:56:14;36.20;42.90
23120;DHT22;11729;50.836;4.330;2022-08-07T10:07:04;34.90;43.10
23120;DHT22;11729;50.836;4.330;2022-08-07T10:29:50;35.20;43.10
23120;DHT22;11729;50.836;4.330;2022-08-07T10:40:37;34.60;44.10
23120;DHT22;11729;50.836;4.330;2022-08-07T10:43:29;34.50;43.10
23120;DHT22;11729;50.836;4.330;2022-08-07T10:46:00;34.70;44.10
23120;DHT22;11729;50.836;4.330;2022-08-07T10:48:42;34.80;43.60
23120;DHT22;11729;50.836;4.330;2022-08-07T10:51:34;35.10;42.40
23120;DHT22;11729;50.836;4.330;2022-08-07T10:54:06;35.00;42.70
23120;DHT22;11729;50.836;4.330;2022-08-07T11:02:05;34.90;43.10
23120;DHT22;11729;50.836;4.330;2022-08-07T11:16:03;34.20;42.10
23120;DHT22;11729;50.836;4.330;2022-08-07T11:18:40;33.60;43.40
23120;DHT22;11729;50.836;4.330;2022-08-07T11:21:41;34.60;42.10
23120;DHT22;11729;50.836;4.330;2022-08-07T11:26:51;35.50;41.90
23120;DHT22;11729;50.836;4.330;2022-08-07T11:29:28;34.40;42.70
23120;DHT22;11729;50.836;4.330;2022-08-07T11:32:15;34.30;42.90
23120;DHT22;11729;50.836;4.330;2022-08-07T11:57:02;34.10;42.70
23120;DHT22;11729;50.836;4.330;2022-08-07T12:06:14;35.40;40.40
23120;DHT22;11729;50.836;4.330;2022-08-07T12:12:07;35.00;40.40
23120;DHT22;11729;50.836;4.330;2022-08-07T12:14:43;34.70;40.90
23120;DHT22;11729;50.836;4.330;2022-08-07T12:17:12;34.40;40.20
23120;DHT22;11729;50.836;4.330;2022-08-07T12:25:35;34.40;40.00
23120;DHT22;11729;50.836;4.330;2022-08-07T12:28:44;34.70;40.00
23120;DHT22;11729;50.836;4.330;2022-08-07T12:33:52;35.40;37.90
23120;DHT22;11729;50.836;4.330;2022-08-07T12:36:20;35.40;37.30
23120;DHT22;11729;50.836;4.330;2022-08-07T12:38:45;35.30;35.70
23120;DHT22;11729;50.836;4.330;2022-08-07T12:41:13;35.10;36.40
23120;DHT22;11729;50.836;4.330;2022-08-07T12:43:41;35.70;36.80
23120;DHT22;11729;50.836;4.330;2022-08-07T12:51:12;35.30;38.90
23120;DHT22;11729;50.836;4.330;2022-08-07T12:53:43;35.30;39.20
23120;DHT22;11729;50.836;4.330;2022-08-07T12:58:52;35.50;39.80
23120;DHT22;11729;50.836;4.330;2022-08-07T13:18:41;36.10;36.00
23120;DHT22;11729;50.836;4.330;2022-08-07T13:21:42;35.70;37.60
23120;DHT22;11729;50.836;4.330;2022-08-07T13:26:55;35.60;38.40
23120;DHT22;11729;50.836;4.330;2022-08-07T13:29:26;36.40;37.10
23120;DHT22;11729;50.836;4.330;2022-08-07T13:32:01;36.50;38.10
23120;DHT22;11729;50.836;4.330;2022-08-07T13:34:39;36.40;37.60
23120;DHT22;11729;50.836;4.330;2022-08-07T13:37:36;37.70;36.30
23120;DHT22;11729;50.836;4.330;2022-08-07T13:40:07;37.90;36.30
23120;DHT22;11729;50.836;4.330;2022-08-07T13:42:34;38.30;35.60
23120;DHT22;11729;50.836;4.330;2022-08-07T13:45:02;36.60;36.70
23120;DHT22;11729;50.836;4.330;2022-08-07T13:47:29;36.20;36.80
23120;DHT22;11729;50.836;4.330;2022-08-07T13:49:58;35.80;37.40
23120;DHT22;11729;50.836;4.330;2022-08-07T13:52:26;35.20;38.70
23120;DHT22;11729;50.836;4.330;2022-08-07T13:54:55;34.40;40.00
23120;DHT22;11729;50.836;4.330;2022-08-07T13:57:26;33.60;40.50
23120;DHT22;11729;50.836;4.330;2022-08-07T13:59:52;32.20;42.40
23120;DHT22;11729;50.836;4.330;2022-08-07T14:02:26;32.10;43.20
23120;DHT22;11729;50.836;4.330;2022-08-07T14:04:55;31.20;43.40
23120;DHT22;11729;50.836;4.330;2022-08-07T14:07:26;30.50;44.70
23120;DHT22;11729;50.836;4.330;2022-08-07T14:09:54;30.10;45.20
23120;DHT22;11729;50.836;4.330;2022-08-07T14:12:22;29.60;45.10
23120;DHT22;11729;50.836;4.330;2022-08-07T14:14:55;29.40;47.20
23120;DHT22;11729;50.836;4.330;2022-08-07T14:17:24;29.20;47.40
23120;DHT22;11729;50.836;4.330;2022-08-07T14:20:27;28.50;48.10
23120;DHT22;11729;50.836;4.330;2022-08-07T14:23:05;27.80;49.00
23120;DHT22;11729;50.836;4.330;2022-08-07T14:25:34;27.50;50.20
23120;DHT22;11729;50.836;4.330;2022-08-07T14:28:05;27.30;51.30
23120;DHT22;11729;50.836;4.330;2022-08-07T14:30:32;27.70;51.20
23120;DHT22;11729;50.836;4.330;2022-08-07T14:33:01;27.70;50.20
23120;DHT22;11729;50.836;4.330;2022-08-07T14:35:32;27.60;50.20
23120;DHT22;11729;50.836;4.330;2022-08-07T14:38:00;27.70;50.40
23120;DHT22;11729;50.836;4.330;2022-08-07T14:40:27;27.70;50.50
23120;DHT22;11729;50.836;4.330;2022-08-07T14:43:02;27.70;51.10
23120;DHT22;11729;50.836;4.330;2022-08-07T14:48:06;27.50;51.30
23120;DHT22;11729;50.836;4.330;2022-08-07T14:50:32;27.10;52.30
23120;DHT22;11729;50.836;4.330;2022-08-07T14:53:00;27.10;53.30
23120;DHT22;11729;50.836;4.330;2022-08-07T14:55:31;27.20;53.60
23120;DHT22;11729;50.836;4.330;2022-08-07T14:57:58;27.40;52.60
23120;DHT22;11729;50.836;4.330;2022-08-07T15:00:29;27.50;52.70
23120;DHT22;11729;50.836;4.330;2022-08-07T15:02:57;27.50;53.20
23120;DHT22;11729;50.836;4.330;2022-08-07T15:05:23;27.50;52.90
23120;DHT22;11729;50.836;4.330;2022-08-07T15:07:50;27.60;51.90
23120;DHT22;11729;50.836;4.330;2022-08-07T15:10:22;27.50;52.60
23120;DHT22;11729;50.836;4.330;2022-08-07T15:12:51;27.20;52.70
23120;DHT22;11729;50.836;4.330;2022-08-07T15:15:32;27.40;52.40
23120;DHT22;11729;50.836;4.330;2022-08-07T15:18:04;27.40;52.10
23120;DHT22;11729;50.836;4.330;2022-08-07T15:20:34;27.40;53.20
23120;DHT22;11729;50.836;4.330;2022-08-07T15:23:25;27.50;52.20
23120;DHT22;11729;50.836;4.330;2022-08-07T15:25:55;27.50;52.10
23120;DHT22;11729;50.836;4.330;2022-08-07T15:28:23;27.50;52.40
23120;DHT22;11729;50.836;4.330;2022-08-07T15:30:51;27.40;52.70
23120;DHT22;11729;50.836;4.330;2022-08-07T15:33:19;27.40;53.10
23120;DHT22;11729;50.836;4.330;2022-08-07T15:35:52;27.40;52.40
23120;DHT22;11729;50.836;4.330;2022-08-07T15:38:26;27.10;52.90
23120;DHT22;11729;50.836;4.330;2022-08-07T15:40:52;27.20;52.70
23120;DHT22;11729;50.836;4.330;2022-08-07T15:43:25;27.10;52.40
23120;DHT22;11729;50.836;4.330;2022-08-07T15:45:53;27.20;52.40
23120;DHT22;11729;50.836;4.330;2022-08-07T15:48:32;27.10;52.90
23120;DHT22;11729;50.836;4.330;2022-08-07T15:51:05;27.20;52.00
23120;DHT22;11729;50.836;4.330;2022-08-07T15:53:51;27.20;53.20
23120;DHT22;11729;50.836;4.330;2022-08-07T15:56:22;27.10;52.70
23120;DHT22;11729;50.836;4.330;2022-08-07T15:58:51;27.10;52.50
23120;DHT22;11729;50.836;4.330;2022-08-07T16:01:21;27.00;52.90
23120;DHT22;11729;50.836;4.330;2022-08-07T16:03:50;26.70;53.30
23120;DHT22;11729;50.836;4.330;2022-08-07T16:06:34;26.50;54.00
23120;DHT22;11729;50.836;4.330;2022-08-07T16:09:31;26.60;54.40
23120;DHT22;11729;50.836;4.330;2022-08-07T16:12:19;26.50;54.50
23120;DHT22;11729;50.836;4.330;2022-08-07T16:15:04;26.50;54.20
23120;DHT22;11729;50.836;4.330;2022-08-07T16:17:46;26.50;54.20
23120;DHT22;11729;50.836;4.330;2022-08-07T16:23:49;26.50;55.00
23120;DHT22;11729;50.836;4.330;2022-08-07T16:26:31;26.40;54.50
23120;DHT22;11729;50.836;4.330;2022-08-07T16:32:01;26.40;55.20
23120;DHT22;11729;50.836;4.330;2022-08-07T17:05:04;25.70;61.10
23120;DHT22;11729;50.836;4.330;2022-08-07T17:07:45;25.60;62.10
23120;DHT22;11729;50.836;4.330;2022-08-07T17:16:13;25.30;64.10
23120;DHT22;11729;50.836;4.330;2022-08-07T17:21:43;25.20;65.50
23120;DHT22;11729;50.836;4.330;2022-08-07T17:25:02;25.20;66.00
23120;DHT22;11729;50.836;4.330;2022-08-07T17:27:32;25.20;66.00
23120;DHT22;11729;50.836;4.330;2022-08-07T17:30:09;25.10;67.00
23120;DHT22;11729;50.836;4.330;2022-08-07T17:35:59;24.80;68.60
23120;DHT22;11729;50.836;4.330;2022-08-07T17:38:33;24.80;69.20
23120;DHT22;11729;50.836;4.330;2022-08-07T17:41:12;24.80;69.50
23120;DHT22;11729;50.836;4.330;2022-08-07T17:43:45;24.70;70.40
23120;DHT22;11729;50.836;4.330;2022-08-07T17:46:18;24.60;71.20
23120;DHT22;11729;50.836;4.330;2022-08-07T17:49:07;24.30;72.80
23120;DHT22;11729;50.836;4.330;2022-08-07T17:51:36;24.40;73.10
23120;DHT22;11729;50.836;4.330;2022-08-07T17:57:11;24.20;74.40
23120;DHT22;11729;50.836;4.330;2022-08-07T17:59:45;24.00;75.30
23120;DHT22;11729;50.836;4.330;2022-08-07T18:02:14;23.90;76.40
23120;DHT22;11729;50.836;4.330;2022-08-07T18:10:19;24.00;77.00
23120;DHT22;11729;50.836;4.330;2022-08-07T18:13:02;23.90;77.50
23120;DHT22;11729;50.836;4.330;2022-08-07T18:15:41;23.90;77.70
23120;DHT22;11729;50.836;4.330;2022-08-07T18:18:13;23.80;78.00
23120;DHT22;11729;50.836;4.330;2022-08-07T18:21:13;23.90;78.00
23120;DHT22;11729;50.836;4.330;2022-08-07T18:26:19;23.70;79.80
23120;DHT22;11729;50.836;4.330;2022-08-07T18:29:06;23.60;79.80
23120;DHT22;11729;50.836;4.330;2022-08-07T18:31:48;23.60;80.30
23120;DHT22;11729;50.836;4.330;2022-08-07T18:34:46;23.50;80.60
23120;DHT22;11729;50.836;4.330;2022-08-07T18:45:44;23.00;83.80
23120;DHT22;11729;50.836;4.330;2022-08-07T18:48:27;22.90;84.60
23120;DHT22;11729;50.836;4.330;2022-08-07T19:02:24;22.40;89.00
23120;DHT22;11729;50.836;4.330;2022-08-07T19:05:13;22.40;90.00
23120;DHT22;11729;50.836;4.330;2022-08-07T19:10:28;22.30;90.70
23120;DHT22;11729;50.836;4.330;2022-08-07T19:15:45;22.40;90.90
23120;DHT22;11729;50.836;4.330;2022-08-07T19:20:49;22.20;91.60
23120;DHT22;11729;50.836;4.330;2022-08-07T19:23:27;22.10;91.80
23120;DHT22;11729;50.836;4.330;2022-08-07T19:25:55;22.00;92.40
23120;DHT22;11729;50.836;4.330;2022-08-07T19:28:26;22.00;92.70
23120;DHT22;11729;50.836;4.330;2022-08-07T19:30:55;22.00;92.90
23120;DHT22;11729;50.836;4.330;2022-08-07T19:33:25;21.90;93.30
23120;DHT22;11729;50.836;4.330;2022-08-07T19:35:56;21.70;94.00
23120;DHT22;11729;50.836;4.330;2022-08-07T19:38:26;21.70;94.30
23120;DHT22;11729;50.836;4.330;2022-08-07T19:40:57;21.70;94.60
23120;DHT22;11729;50.836;4.330;2022-08-07T19:43:29;21.70;95.00
23120;DHT22;11729;50.836;4.330;2022-08-07T19:45:58;21.70;94.90
23120;DHT22;11729;50.836;4.330;2022-08-07T19:48:41;21.50;95.60
23120;DHT22;11729;50.836;4.330;2022-08-07T19:51:08;21.50;96.10
23120;DHT22;11729;50.836;4.330;2022-08-07T19:53:35;21.50;96.30
23120;DHT22;11729;50.836;4.330;2022-08-07T19:56:07;21.50;96.50
23120;DHT22;11729;50.836;4.330;2022-08-07T19:58:34;21.40;96.90
23120;DHT22;11729;50.836;4.330;2022-08-07T20:01:02;21.40;97.50
23120;DHT22;11729;50.836;4.330;2022-08-07T20:03:28;21.30;98.00
23120;DHT22;11729;50.836;4.330;2022-08-07T20:05:58;21.40;97.80
23120;DHT22;11729;50.836;4.330;2022-08-07T20:08:37;21.40;97.90
23120;DHT22;11729;50.836;4.330;2022-08-07T20:11:08;21.30;98.40
23120;DHT22;11729;50.836;4.330;2022-08-07T20:13:44;21.20;98.80
23120;DHT22;11729;50.836;4.330;2022-08-07T20:16:15;21.20;99.10